Halden, Minnesota
Current Conditions -  °F | °C
As of 9:36 PM on Monday 22 Dec 2014 (Local Time) from KCOQ Reporting Station
Haze Haze  
Wind Chill: 28°   Ceiling: 400
Heat Index: 34°   Visibility: 3mi
Dew Point: 34°   Wind: 7mph
Humidity: 100%   Direction: 80°E
Pressure: 29.71"   Gusts: NA
Location:  46.9584°N, 92.9445°W
Report Text: KCOQ 230336Z AUTO 08006KT 3SM BR OVC004 01/01 A2971 RMK AO2
Loading
Personal Weather Stations






























Interactive Weather Map New forecast layout! Learn more

10-Day Weather Forecast

Advertisements
Track Severe Weather on mobile